Javier Gutiérrez

Chief Scout - Levante
4 Jun 2028
Sunday
Process

Personality

Adaptability (6) Ambition (2) Controversy (13) Loyalty (19) Pressure (8) Professionalism (8) Sportsmanship (5) Temperament (7)

Profile

Coaching Style Democratic
License Continental A
Determination 13
Man Management 5
Motivating 4
Discipline 6
Job Satisfaction
100%
Fatigue
0%
Role Chief Scout
Wage 42.6K p/w
Contract 14.03.2030

Performance

Behaviour Good
Training Effectiveness
40%
Player Development
50%
Injury Prevention
45%
Tactical Implementation
40%

Recent Events

Assessed a player now

Currently Monitoring

57
Player Club Status Ability Confidence Watched Last Observed Latest Vote
Ronan Kpakio Cardiff City Active 117 / 129 40% 1 02.06.2028 -
Finn Jeltsch VfB Stuttgart Active 137 / 139 40% 1 02.06.2028 -
Florin Bancu Hammarby Report Ready 123 / 123 69% 1 01.06.2028 -
Wanderson Cruzeiro Report Ready 129 / 129 68% 1 01.06.2028 -
Rodrygo Rangel Veracruz Report Ready 136 / 136 68% 1 01.06.2028 -
Matvey Bardachev Zenit Active 107 / 104 40% 1 31.01.2028 -
Jaydee Canvot Crystal Palace Active 136 / 157 40% 1 31.01.2028 -
Luka Vušković Brighton Active 153 / 154 40% 1 07.01.2028 -
Andile Zwane Rosario Central Active 124 / 124 67% 1 01.01.2028 Approve
Denis Bouanga Nacional Active 134 / 134 66% 1 01.01.2028 Approve
Celías Ingenthron Racing Club Active 118 / 120 40% 1 01.01.2028 -
Felipe Faúndez O'Higgins Active 103 / 115 40% 1 01.01.2028 -
Afriyie Sulemana Hasaacas Active 108 / 82 40% 1 30.08.2027 -
Dylan Gorosito Boca Juniors Active 121 / 116 40% 4 09.08.2027 -
Enzo Galli Patronato Active 96 / 100 40% 2 09.08.2027 -
Simone Kosijer Triestina Active 88 / 111 40% 2 03.08.2027 -
Mohamed Moussa Koïta Persik Active 74 / 81 40% 1 02.08.2027 -
Juan Morán Godoy Cruz Active 96 / 102 40% 2 01.08.2027 -
Estanislao López Colón Active 87 / 111 40% 1 30.07.2027 -
Ignacio Alegre Penarol Active 90 / 93 40% 1 28.07.2027 -
Nicolás Vidal AEL Active 79 / 104 40% 1 27.07.2027 -
Denys Smetana Inhulets Active 79 / 83 40% 2 25.07.2027 -
Martim Cunha Porto Active 91 / 116 40% 4 22.07.2027 Monitor
Harley Mills Peterborough United Active 92 / 91 40% 1 19.07.2027 -
Matías Calegari Olympiacos Active 85 / 125 40% 1 17.07.2027 -
Axel Tape Bayer Leverkusen Active 134 / 123 40% 1 16.07.2027 -
Máximo Munarriz San Telmo Active 90 / 96 40% 2 13.07.2027 -
Juan Cruz Cortazzo Gimnasia La Plata Active 115 / 113 40% 1 21.06.2027 -
Lucas Barrientos Los Andes Active 101 / 101 40% 1 17.06.2027 -
Yassine Khalifi Charleroi Active 119 / 102 40% 1 17.06.2027 -
Pedro Vian Seewald Arzignano Active 92 / 107 40% 2 13.06.2027 -
T-Jay Parfitt Colchester United Active 79 / 111 40% 1 12.06.2027 -
Victor Corona Santos Laguna Active 95 / 113 40% 1 12.06.2027 -
Daniel Banjaqui Benfica Active 120 / 110 40% 1 09.06.2027 -
Harry Cornick AFC Wimbledon Active 114 / 116 40% 1 07.06.2027 -
Jhojan Julio Queretaro Active 116 / 127 40% 1 05.06.2027 -
Juan Otero Gijón Active 126 / 144 40% 1 02.06.2027 -
Juninho Pumas UNAM Active 129 / 131 40% 1 02.06.2027 -
Jellert Van Landschoot Brighton Active 120 / 120 66% 1 01.06.2027 Approve
Pablo Moreno Guadalajara Active 120 / 120 66% 1 01.06.2027 Approve
Christian Walton Ipswich Town Active 122 / 123 40% 1 01.06.2027 -
Ignacio Perruzzi San Lorenzo Active 123 / 129 40% 1 30.01.2027 -
Agustín Alvez San Lorenzo Active 106 / 93 40% 1 28.01.2027 -
Joaquín Pereyra Estudiantes Active 101 / 111 40% 1 26.01.2027 -
Adrián Parra Udinese Active 117 / 117 67% 1 11.01.2027 Approve
Lucas Agazzi Benfica Active 112 / 136 40% 2 07.01.2027 -
Jerónimo Russo Newell's Old Boys Active 90 / 97 40% 1 06.01.2027 -
Gorka Gorosabel Real Sociedad Active 101 / 106 40% 1 06.01.2027 -
Mateo Bustamante Tristán Suárez Active 102 / 111 40% 1 02.01.2027 -
Pedro Raul Corinthians Active 135 / 111 40% 1 01.01.2027 -
Lucas Richarte Kawasaki Frontale Active 122 / 121 40% 1 26.08.2026 -
Bruno Hernández Cerro Largo Active 89 / 98 40% 1 26.08.2026 -
Joaquín Parras Independiente Active 101 / 94 40% 1 19.08.2026 -
Tiago Marghetich Quilmes Active 88 / 91 40% 1 18.08.2026 -
Jonathan Asp-Jensen Deportivo La Coruña Active 106 / 141 40% 1 17.08.2026 -
Diego Rossi Monterrey Active 141 / 135 40% 1 01.08.2026 -
Alejandro Piedrahita Deportivo Pereira Active 124 / 122 40% 1 01.08.2026 -